Fizuli, Azerbaijan
Current Conditions -  °F | °C
As of 5:00 PM on Friday 24 Oct 2014 (Local Time) from UBEE Reporting Station
Clear Clear  
Wind Chill: 21°   Ceiling: Unl
Heat Index: 21°   Visibility: 6mi
Dew Point: 14°   Wind: 9mph
Humidity: 64%   Direction: 150°SSE
Pressure: 29.94"   Gusts: NA
Location:  39.6°N, 47.15°E
Report Text: UBEE 241200Z 15008KT 120V200 CAVOK21/14 Q1014 R30/CLRD70 NOSIG
Loading
Personal Weather Stations






























Interactive Weather Map
Tropical Storm Tracking
New forecast layout! Learn more

10-Day Weather Forecast

Advertisements
Track Severe Weather on mobile